Ana Sayfa
METAR-TAF:

METAR-TAF

Havaalanları :

Lee's Summit Municipal Airport

Lee's Summit, Missouri, Amerika Birleşik Devletleri

Enlem: 38-57-35N, Boylam: 094-22-18W, yükseklik: 306 m

Güncel hava durumu gözlemi

Rapor saat 10:53 UTC de 38 dakika önce yapıldı.
Rüzgar güneydan 12 kt ve 22 kt'a kadar ani rüzgarlar
Sıcaklık 22°C
Nem 94%
Basınç 1010 hPa
Görüş mesafesi: 16.1 km
2900 ft yükseklikte parçalı çok bulutlu

METAR: KLXT 181053Z AUTO 17012G22KT 10SM BKN029 22/21 A2982 RMK AO2 PK WND 18026/1001 SLP086 T02220206

Saat: 06:31 (11:31 UTC)


TAF: eksik

4.000'den fazla havaalanı için hava durumu gözlemleri ve tahminleri (METAR ve TAF raporları).

Kullanılabilir istasyonlar harita üzerinde sarı ve kırmızı noktalarla gösterilir.

İstasyonun adını görmek için fareyi noktanın üzerinde gezdirin.

Sonrasında hava gözlem ve tahminlerini görmek için tıklayın.

Haritayı değiştirmek için: yaklaştırmak için siyah artı işaretli yeşil düğmeye ve uzaklaştırmak için de eksi işaretli düğmeye hızla tıklayın; bitişik haritalar için yeşil okları kullanın.


METAR-TAF: